Time;durP1;ratioP1;P1;durP2;ratioP2;P2;SDS_P1;SDS_P2;PMS_P1;PMS_P2;Temp;Humidity;BMP_temperature;BMP_pressure;BME280_temperature;BME280_humidity;BME280_pressure;Samples;Min_cycle;Max_cycle;Signal;HPM_P1;HPM_P2
2023/09/02 00:04:57;;;;;;;9.43;2.27;;;17.70;99.90;;;;;;20759698;28;20287;-74
2023/09/02 00:14:59;;;;;;;6.07;2.17;;;17.60;99.90;;;;;;20758378;28;20237;-73
2023/09/02 00:25:01;;;;;;;7.00;2.70;;;17.50;99.90;;;;;;20758776;28;20263;-73
2023/09/02 00:35:03;;;;;;;4.43;2.40;;;17.50;99.90;;;;;;20757912;28;20240;-73
2023/09/02 00:45:05;;;;;;;5.37;2.40;;;17.40;99.90;;;;;;20757418;28;20234;-72
2023/09/02 00:55:07;;;;;;;3.87;2.20;;;17.30;99.90;;;;;;20802150;28;20243;-73
2023/09/02 01:05:10;;;;;;;5.17;2.20;;;17.30;99.90;;;;;;20755736;28;20657;-72
2023/09/02 01:15:11;;;;;;;5.33;2.50;;;17.20;99.90;;;;;;20754727;28;20280;-75
2023/09/02 01:25:47;;;;;;;6.50;2.50;;;17.20;99.90;;;;;;20754590;28;20583;-75
2023/09/02 01:35:50;;;;;;;10.17;2.40;;;17.20;99.90;;;;;;20753437;28;20331;-74
2023/09/02 01:45:53;;;;;;;6.53;2.10;;;17.20;99.90;;;;;;20752999;28;20211;-74
2023/09/02 01:55:56;;;;;;;8.57;2.30;;;17.20;99.90;;;;;;20752067;28;20779;-73
2023/09/02 02:05:59;;;;;;;4.43;2.30;;;17.20;99.90;;;;;;20750575;28;20238;-73
2023/09/02 02:16:01;;;;;;;4.67;2.10;;;17.10;99.90;;;;;;20750789;28;20244;-74
2023/09/02 02:26:04;;;;;;;4.87;2.20;;;17.00;99.90;;;;;;20750562;28;20244;-74
2023/09/02 02:36:09;;;;;;;6.90;2.20;;;16.90;99.90;;;;;;20749580;28;20237;-75
2023/09/02 02:46:11;;;;;;;3.33;2.30;;;16.90;99.90;;;;;;20731362;28;20216;-75
2023/09/02 02:56:13;;;;;;;7.53;2.00;;;16.80;99.90;;;;;;20748368;28;20240;-75
2023/09/02 03:06:18;;;;;;;4.23;2.40;;;16.90;99.90;;;;;;20748133;28;20212;-76
2023/09/02 03:16:19;;;;;;;4.67;2.17;;;16.70;99.90;;;;;;20747500;28;20278;-73
2023/09/02 03:26:24;;;;;;;3.73;2.00;;;16.70;99.90;;;;;;20788658;28;20250;-74
2023/09/02 03:36:26;;;;;;;7.83;2.13;;;16.70;99.90;;;;;;20806415;28;20721;-73
2023/09/02 03:46:27;;;;;;;7.93;2.63;;;16.80;99.90;;;;;;20843574;28;20200;-68
2023/09/02 03:56:36;;;;;;;4.13;2.40;;;16.70;99.90;;;;;;20843041;28;20778;-67
2023/09/02 04:06:38;;;;;;;4.57;2.00;;;16.70;99.90;;;;;;20842143;28;20211;-69
2023/09/02 04:16:40;;;;;;;2.70;2.13;;;16.90;99.90;;;;;;20841376;28;20271;-75
2023/09/02 04:26:41;;;;;;;7.40;2.40;;;16.90;99.90;;;;;;20841067;28;20216;-75
2023/09/02 04:36:43;;;;;;;4.57;2.20;;;16.80;99.90;;;;;;20839522;28;20579;-78
2023/09/02 04:46:45;;;;;;;5.20;2.40;;;16.80;99.90;;;;;;20839103;28;20216;-75
2023/09/02 04:56:47;;;;;;;4.23;2.90;;;17.00;99.90;;;;;;20838581;28;20689;-73
2023/09/02 05:06:48;;;;;;;7.50;2.30;;;17.00;99.90;;;;;;20825699;28;20300;-72
2023/09/02 05:16:50;;;;;;;3.87;2.10;;;17.20;99.90;;;;;;20799524;28;20342;-74
2023/09/02 05:26:52;;;;;;;3.47;2.47;;;17.30;99.90;;;;;;20836376;28;20214;-75
2023/09/02 05:36:54;;;;;;;5.43;2.57;;;17.40;99.90;;;;;;20835359;28;20318;-76
2023/09/02 05:46:58;;;;;;;8.13;2.60;;;17.60;99.90;;;;;;20834817;28;20270;-72
2023/09/02 05:57:00;;;;;;;2.63;2.00;;;17.60;99.90;;;;;;20833937;28;20232;-78
2023/09/02 06:07:02;;;;;;;4.83;2.20;;;17.60;99.90;;;;;;20824396;28;20216;-81
2023/09/02 06:17:04;;;;;;;3.13;2.30;;;17.70;99.90;;;;;;20788468;28;20243;-79
2023/09/02 06:27:05;;;;;;;3.57;2.60;;;17.70;99.90;;;;;;20829027;28;20308;-75
2023/09/02 06:37:07;;;;;;;3.47;2.20;;;17.90;99.90;;;;;;20810999;28;20267;-68
2023/09/02 06:47:09;;;;;;;5.83;4.53;;;18.10;99.90;;;;;;20827061;28;20212;-68
2023/09/02 06:57:11;;;;;;;3.60;3.30;;;18.30;99.90;;;;;;20825009;28;20268;-70
2023/09/02 07:07:12;;;;;;;4.20;3.63;;;18.30;99.90;;;;;;20822679;28;20306;-72
2023/09/02 07:17:14;;;;;;;5.90;4.27;;;18.40;99.90;;;;;;20777086;28;20757;-68
2023/09/02 07:27:16;;;;;;;5.20;4.70;;;18.60;99.90;;;;;;20822979;28;20283;-74
2023/09/02 07:37:17;;;;;;;4.73;4.27;;;18.60;99.90;;;;;;20826688;28;20319;-70
2023/09/02 07:47:19;;;;;;;4.67;4.27;;;18.70;99.90;;;;;;20825800;28;20291;-65
2023/09/02 07:57:21;;;;;;;5.87;5.30;;;18.80;99.90;;;;;;20805286;28;20241;-67
2023/09/02 08:07:22;;;;;;;5.30;4.80;;;18.80;99.90;;;;;;20801731;28;20652;-67
2023/09/02 08:17:25;;;;;;;5.47;4.97;;;18.80;99.90;;;;;;20795919;28;20263;-64
2023/09/02 08:27:27;;;;;;;5.63;4.07;;;19.00;99.90;;;;;;20829194;28;20201;-69
2023/09/02 08:37:31;;;;;;;4.37;3.93;;;19.10;99.90;;;;;;20837435;28;20239;-69
2023/09/02 08:47:34;;;;;;;5.70;4.70;;;19.30;99.90;;;;;;20801144;28;20201;-68
2023/09/02 08:57:37;;;;;;;5.03;4.10;;;19.40;99.90;;;;;;20792504;28;20237;-73
2023/09/02 09:07:40;;;;;;;4.30;3.90;;;19.50;99.90;;;;;;20755524;28;20653;-74
2023/09/02 09:17:43;;;;;;;5.67;3.50;;;19.90;99.90;;;;;;20817731;28;20287;-71
2023/09/02 09:27:45;;;;;;;3.83;3.47;;;20.00;99.90;;;;;;20834350;28;20213;-72
2023/09/02 09:37:56;;;;;;;3.70;3.40;;;20.10;99.90;;;;;;20835231;28;20326;-70
2023/09/02 09:48:08;;;;;;;3.40;3.10;;;20.30;99.90;;;;;;20834413;28;20240;-71
2023/09/02 09:58:10;;;;;;;2.40;2.20;;;20.60;99.90;;;;;;20833199;28;20331;-73
2023/09/02 10:08:12;;;;;;;3.33;1.53;;;20.70;99.90;;;;;;20813529;28;20240;-72
2023/09/02 10:18:16;;;;;;;1.40;1.30;;;21.00;99.90;;;;;;20758852;28;20663;-72
2023/09/02 10:28:27;;;;;;;1.50;1.20;;;21.20;99.90;;;;;;20748922;28;20699;-72
2023/09/02 10:38:36;;;;;;;1.80;1.60;;;21.30;99.90;;;;;;20756083;28;20713;-74
2023/09/02 10:48:40;;;;;;;2.13;1.60;;;21.30;99.90;;;;;;20768656;28;20237;-73
2023/09/02 10:58:47;;;;;;;1.80;1.20;;;21.30;99.90;;;;;;20748107;28;20700;-73
2023/09/02 11:08:50;;;;;;;1.73;1.47;;;21.40;99.90;;;;;;20748053;28;20612;-75
2023/09/02 11:18:53;;;;;;;1.53;1.20;;;21.70;99.90;;;;;;20747309;28;20329;-72
2023/09/02 11:28:55;;;;;;;1.20;1.10;;;21.80;99.80;;;;;;20747019;28;20222;-71
2023/09/02 11:38:57;;;;;;;2.90;1.20;;;21.80;99.70;;;;;;20749060;28;20247;-70
2023/09/02 11:48:59;;;;;;;1.30;1.20;;;22.10;99.80;;;;;;20761912;28;20292;-70
2023/09/02 11:59:01;;;;;;;1.40;1.20;;;22.30;99.60;;;;;;20761125;28;20239;-70
2023/09/02 12:09:03;;;;;;;1.10;1.03;;;;;;;;;;20760615;28;20217;-70
2023/09/02 12:19:05;;;;;;;1.30;1.20;;;22.60;99.20;;;;;;20759328;28;20240;-71
2023/09/02 12:29:17;;;;;;;3.43;1.30;;;23.20;98.30;;;;;;20758850;28;20209;-71
2023/09/02 12:39:28;;;;;;;1.73;1.30;;;23.40;97.60;;;;;;20758007;28;20273;-71
2023/09/02 12:49:31;;;;;;;1.60;1.30;;;23.70;96.90;;;;;;20756445;28;20228;-71
2023/09/02 12:59:33;;;;;;;1.00;1.00;;;23.80;96.30;;;;;;20756281;28;20272;-70
2023/09/02 13:09:34;;;;;;;1.37;1.10;;;24.00;95.80;;;;;;20755687;28;20571;-71
2023/09/02 13:19:36;;;;;;;1.20;1.10;;;24.00;95.30;;;;;;20754442;28;20299;-71
2023/09/02 13:29:38;;;;;;;1.20;1.10;;;24.00;94.90;;;;;;20754310;28;20667;-70
2023/09/02 13:39:40;;;;;;;1.70;0.80;;;24.20;94.10;;;;;;20753619;28;20323;-71
2023/09/02 13:49:48;;;;;;;1.00;1.00;;;24.30;92.80;;;;;;20830396;28;20635;-71
2023/09/02 13:59:56;;;;;;;0.97;0.93;;;24.60;91.70;;;;;;20833261;28;20239;-71
2023/09/02 14:09:58;;;;;;;0.93;0.90;;;25.50;90.00;;;;;;20833148;28;20696;-71
2023/09/02 14:20:00;;;;;;;1.48;1.27;;;26.10;86.00;;;;;;20831753;28;20244;-71
2023/09/02 14:30:03;;;;;;;0.70;0.70;;;29.60;75.10;;;;;;20831454;28;20274;-71
2023/09/02 14:40:05;;;;;;;1.25;0.70;;;32.50;65.20;;;;;;20830591;28;20241;-71
2023/09/02 14:50:07;;;;;;;1.10;1.02;;;35.20;55.30;;;;;;20830294;28;20235;-71
2023/09/02 15:00:12;;;;;;;1.77;1.60;;;31.60;57.70;;;;;;20829903;28;20274;-71
2023/09/02 15:10:26;;;;;;;0.88;0.88;;;30.20;58.30;;;;;;20829826;28;20205;-70
2023/09/02 15:20:28;;;;;;;0.80;0.80;;;29.00;60.60;;;;;;20842131;28;20252;-70
2023/09/02 15:30:31;;;;;;;1.42;0.90;;;28.20;62.30;;;;;;20845201;28;20299;-70
2023/09/02 15:40:33;;;;;;;1.35;0.80;;;27.30;64.20;;;;;;20844834;28;20699;-70
2023/09/02 15:50:35;;;;;;;1.17;0.90;;;26.70;66.20;;;;;;20843540;28;20295;-71
2023/09/02 16:00:37;;;;;;;0.90;0.90;;;26.20;67.70;;;;;;20825541;28;20268;-71
2023/09/02 16:10:40;;;;;;;1.37;1.20;;;25.80;69.20;;;;;;20842460;28;20295;-71
2023/09/02 16:20:42;;;;;;;0.90;0.90;;;25.60;70.30;;;;;;20841174;28;20283;-71
2023/09/02 16:30:45;;;;;;;0.93;0.93;;;25.50;71.10;;;;;;20821971;28;20635;-71
2023/09/02 16:40:47;;;;;;;1.20;1.10;;;25.10;72.30;;;;;;20839594;28;20243;-71
2023/09/02 16:50:49;;;;;;;1.07;0.97;;;25.00;73.00;;;;;;20839311;28;20247;-71
2023/09/02 17:00:51;;;;;;;1.40;1.30;;;24.70;73.40;;;;;;20820676;28;20239;-72
2023/09/02 17:10:54;;;;;;;3.87;1.40;;;24.40;74.10;;;;;;20837351;28;20210;-71
2023/09/02 17:20:56;;;;;;;1.90;1.67;;;24.20;75.00;;;;;;20819476;28;20340;-72
2023/09/02 17:31:04;;;;;;;3.57;1.27;;;24.00;76.10;;;;;;20818417;28;20205;-72
2023/09/02 17:41:05;;;;;;;1.93;1.50;;;23.80;76.80;;;;;;20834779;28;20255;-71
2023/09/02 17:51:07;;;;;;;2.70;1.90;;;23.70;77.30;;;;;;20834668;28;20567;-71
2023/09/02 18:01:09;;;;;;;6.17;2.30;;;23.50;78.70;;;;;;20833276;28;20332;-71
2023/09/02 18:11:11;;;;;;;8.73;2.37;;;23.20;81.00;;;;;;20833037;28;20277;-70
2023/09/02 18:21:12;;;;;;;4.13;2.20;;;23.00;83.40;;;;;;20832301;28;20611;-71
2023/09/02 18:31:14;;;;;;;5.23;3.93;;;22.70;85.70;;;;;;20813968;28;20672;-71
2023/09/02 18:41:21;;;;;;;5.23;3.60;;;22.50;87.90;;;;;;20830926;28;20239;-71
2023/09/02 18:51:23;;;;;;;4.37;2.80;;;22.30;89.70;;;;;;20831116;28;20311;-71
2023/09/02 19:01:25;;;;;;;4.23;2.50;;;22.10;90.80;;;;;;20829639;28;20232;-70
2023/09/02 19:11:28;;;;;;;3.30;2.47;;;21.90;92.10;;;;;;20827475;28;20204;-70
2023/09/02 19:21:30;;;;;;;6.27;2.37;;;21.60;93.40;;;;;;20827619;28;20695;-68
2023/09/02 19:31:33;;;;;;;6.17;2.80;;;21.40;94.80;;;;;;20828626;28;20293;-67
2023/09/02 19:41:35;;;;;;;4.30;2.20;;;21.20;96.00;;;;;;20828017;28;20268;-67
2023/09/02 19:51:37;;;;;;;3.27;2.30;;;21.00;97.10;;;;;;20828075;28;20678;-68
2023/09/02 20:01:39;;;;;;;4.00;2.20;;;21.00;97.70;;;;;;20831979;28;20685;-67
2023/09/02 20:11:40;;;;;;;6.60;2.20;;;20.70;98.60;;;;;;20842013;28;20213;-68
2023/09/02 20:21:42;;;;;;;7.90;2.20;;;20.60;98.80;;;;;;20841226;28;20232;-66
2023/09/02 20:31:46;;;;;;;2.83;2.00;;;20.40;99.80;;;;;;20822737;28;20225;-67
2023/09/02 20:41:48;;;;;;;5.27;2.10;;;20.20;99.90;;;;;;20757979;28;20229;-67
2023/09/02 20:51:49;;;;;;;6.30;2.10;;;20.10;99.90;;;;;;20757684;28;20256;-66
2023/09/02 21:01:51;;;;;;;4.83;2.00;;;20.10;99.90;;;;;;20739245;28;20275;-66
2023/09/02 21:11:53;;;;;;;3.40;2.17;;;19.90;99.90;;;;;;20752805;28;20217;-67
2023/09/02 21:21:55;;;;;;;4.53;2.60;;;19.70;99.90;;;;;;20752822;28;20601;-67
2023/09/02 21:31:57;;;;;;;2.57;2.03;;;19.60;99.90;;;;;;20752143;28;20610;-67
2023/09/02 21:41:59;;;;;;;3.13;2.23;;;19.60;99.90;;;;;;20751044;28;20241;-66
2023/09/02 21:52:00;;;;;;;4.17;1.93;;;19.40;99.90;;;;;;20750817;28;20718;-65
2023/09/02 22:02:03;;;;;;;13.47;2.27;;;;;;;;;;20749778;28;20295;-65
2023/09/02 22:12:05;;;;;;;7.83;2.60;;;;;;;;;;20748515;28;20263;-65
2023/09/02 22:22:07;;;;;;;4.30;2.63;;;;;;;;;;20746885;28;20363;-65
2023/09/02 22:32:10;;;;;;;2.90;2.20;;;;;;;;;;20746957;28;20296;-65
2023/09/02 22:42:12;;;;;;;4.07;2.60;;;;;;;;;;20748620;28;20278;-65
2023/09/02 22:52:14;;;;;;;4.20;2.40;;;;;;;;;;20749195;28;20209;-64
2023/09/02 23:02:16;;;;;;;9.40;3.20;;;;;;;;;;20748486;28;20805;-64
2023/09/02 23:12:20;;;;;;;5.77;3.00;;;;;;;;;;20748053;28;20291;-64
2023/09/02 23:22:22;;;;;;;8.33;2.63;;;;;;;;;;20747870;28;20244;-65
2023/09/02 23:32:25;;;;;;;4.77;2.20;;;;;;;;;;20747444;28;20210;-63
2023/09/02 23:42:27;;;;;;;9.77;2.60;;;;;;;;;;20760712;28;20310;-64
2023/09/02 23:52:29;;;;;;;5.70;3.30;;;;;;;;;;20762560;28;20209;-63
